createdAt,value
2018-09-15T00:07:20.868Z,68.90
2018-09-15T00:17:20.892Z,70.57
2018-09-15T00:27:20.841Z,70.79
2018-09-15T00:37:20.930Z,72.01
2018-09-15T00:47:21.719Z,72.70
2018-09-15T00:57:20.940Z,73.57
2018-09-15T01:07:20.907Z,75.26
2018-09-15T01:17:20.804Z,74.89
2018-09-15T01:27:20.881Z,75.90
2018-09-15T01:37:20.846Z,76.50
2018-09-15T01:47:20.877Z,77.34
2018-09-15T01:57:21.021Z,78.73
2018-09-15T02:07:20.883Z,79.03
2018-09-15T02:17:20.862Z,79.04
2018-09-15T02:27:20.795Z,79.52
2018-09-15T02:37:20.905Z,79.91
2018-09-15T02:47:20.813Z,81.28
2018-09-15T02:57:20.852Z,80.98
2018-09-15T03:07:21.084Z,82.15
2018-09-15T03:17:20.907Z,82.73
2018-09-15T03:27:20.937Z,83.75
2018-09-15T03:37:20.836Z,84.29
2018-09-15T03:47:20.789Z,85.04
2018-09-15T03:57:20.932Z,85.28
2018-09-15T04:07:20.821Z,84.65
2018-09-15T04:17:20.827Z,84.90
2018-09-15T04:27:20.800Z,86.05
2018-09-15T04:37:20.735Z,86.49
2018-09-15T04:47:20.793Z,87.68
2018-09-15T04:57:20.861Z,87.45
2018-09-15T05:07:20.814Z,87.88
2018-09-15T05:17:20.902Z,88.23
2018-09-15T05:27:20.902Z,88.40
2018-09-15T05:37:20.896Z,83.96
2018-09-15T05:47:20.858Z,84.88
2018-09-15T05:57:20.901Z,86.62
2018-09-15T06:07:20.822Z,87.00
2018-09-15T06:17:20.886Z,75.84
2018-09-15T06:27:20.948Z,72.13
2018-09-15T06:37:21.921Z,72.10
2018-09-15T06:47:20.851Z,80.08
2018-09-15T06:57:20.814Z,80.24
2018-09-15T07:07:20.821Z,79.57
2018-09-15T07:17:20.848Z,72.95
2018-09-15T07:27:20.909Z,78.85
2018-09-15T07:37:20.896Z,75.13
2018-09-15T07:47:20.999Z,76.10
2018-09-15T07:57:20.849Z,76.74
2018-09-15T08:07:20.879Z,68.85
2018-09-15T08:17:20.813Z,67.36
2018-09-15T08:27:20.802Z,69.73
2018-09-15T08:37:20.796Z,73.10
2018-09-15T08:47:20.788Z,71.52
2018-09-15T08:57:20.805Z,64.83
2018-09-15T09:07:20.864Z,69.61
2018-09-15T09:17:20.925Z,61.04
2018-09-15T09:27:20.715Z,65.91
2018-09-15T09:37:20.821Z,60.38
2018-09-15T09:47:20.880Z,57.10
2018-09-15T09:57:20.897Z,50.68
2018-09-15T10:07:20.818Z,55.75
2018-09-15T10:17:20.869Z,54.39
2018-09-15T10:27:21.682Z,57.24
2018-09-15T10:37:20.925Z,50.13
2018-09-15T10:47:20.886Z,50.94
2018-09-15T10:57:20.973Z,44.77
2018-09-15T11:07:20.858Z,42.00
2018-09-15T11:17:20.928Z,47.42
2018-09-15T11:27:20.832Z,44.66
2018-09-15T11:37:20.893Z,41.75
2018-09-15T11:47:21.040Z,41.51
2018-09-15T11:57:20.797Z,38.95
2018-09-15T12:07:20.844Z,43.95
2018-09-15T12:17:20.939Z,46.84
2018-09-15T12:27:20.832Z,34.91
2018-09-15T12:37:20.881Z,36.88
2018-09-15T12:47:20.886Z,33.42
2018-09-15T12:57:20.875Z,34.82
2018-09-15T13:07:21.042Z,30.62
2018-09-15T13:17:21.022Z,33.85
2018-09-15T13:27:20.947Z,34.97
2018-09-15T13:37:20.972Z,38.19
2018-09-15T13:47:20.917Z,36.36
2018-09-15T13:57:20.895Z,40.03
2018-09-15T14:07:20.852Z,40.07
2018-09-15T14:17:20.839Z,40.62
2018-09-15T14:27:21.150Z,42.94
2018-09-15T14:37:21.013Z,44.00
2018-09-15T14:47:24.750Z,43.51
2018-09-15T14:57:20.915Z,43.75
2018-09-15T15:07:20.936Z,44.87
2018-09-15T15:17:20.939Z,44.93
2018-09-15T15:27:21.007Z,43.11
2018-09-15T15:37:20.988Z,43.94
2018-09-15T15:47:20.960Z,45.07
2018-09-15T15:57:20.916Z,42.46
2018-09-15T16:07:21.076Z,39.89
2018-09-15T16:17:21.242Z,33.56
2018-09-15T16:27:21.313Z,40.92
2018-09-15T16:37:21.034Z,44.37
2018-09-15T16:47:21.798Z,45.88
2018-09-15T16:57:20.949Z,48.21
2018-09-15T17:07:20.972Z,51.47
2018-09-15T17:17:20.977Z,53.61
2018-09-15T17:27:21.111Z,56.72
2018-09-15T17:37:20.955Z,58.75
2018-09-15T17:47:21.044Z,60.88
2018-09-15T17:57:20.980Z,63.13
2018-09-15T18:07:21.008Z,65.13
2018-09-15T18:17:21.963Z,66.06
2018-09-15T18:27:20.991Z,68.26
2018-09-15T18:37:21.189Z,69.73
2018-09-15T18:47:21.063Z,70.03
2018-09-15T18:57:22.524Z,70.83
2018-09-15T19:07:21.021Z,73.19
2018-09-15T19:17:21.001Z,74.34
2018-09-15T19:27:20.979Z,75.64
2018-09-15T19:37:21.031Z,77.01
2018-09-15T19:47:21.036Z,78.08
2018-09-15T19:57:20.936Z,78.84
2018-09-15T20:07:20.975Z,79.56
2018-09-15T20:17:21.004Z,79.54
2018-09-15T20:27:20.982Z,81.08
2018-09-15T20:37:21.062Z,81.96
2018-09-15T20:47:20.923Z,82.02
2018-09-15T20:57:21.190Z,84.50
2018-09-15T21:07:21.020Z,82.74
2018-09-15T21:17:21.020Z,82.80
2018-09-15T21:27:21.028Z,84.20
2018-09-15T21:37:21.032Z,85.52
2018-09-15T21:47:21.029Z,86.00
2018-09-15T21:57:20.957Z,86.97
2018-09-15T22:07:20.925Z,87.89
2018-09-15T22:17:20.963Z,87.17
2018-09-15T22:27:21.041Z,88.63
2018-09-15T22:37:21.072Z,88.81
2018-09-15T22:47:21.655Z,89.11
2018-09-15T22:57:21.003Z,89.18
2018-09-15T23:07:20.954Z,89.18
2018-09-15T23:17:20.969Z,89.99
2018-09-15T23:27:20.988Z,90.73
2018-09-15T23:37:21.059Z,90.56
2018-09-15T23:47:20.925Z,91.01
2018-09-15T23:57:21.064Z,90.42
